Time;durP1;ratioP1;P1;durP2;ratioP2;P2;SDS_P1;SDS_P2;PMS_P1;PMS_P2;Temp;Humidity;BMP_temperature;BMP_pressure;BME280_temperature;BME280_humidity;BME280_pressure;Samples;Min_cycle;Max_cycle;Signal;HPM_P1;HPM_P2
2022/06/27 00:06:03;;;;;;;4.50;3.60;;;;;;;21.54;48.29;99652.41;431660;1270;140518;-60
2022/06/27 00:16:09;;;;;;;8.00;3.70;;;;;;;21.18;49.15;99652.14;430875;1270;141321;-60
2022/06/27 00:26:35;;;;;;;4.60;4.20;;;;;;;20.91;49.94;99646.45;430866;1269;144092;-60
2022/06/27 00:36:41;;;;;;;4.90;4.00;;;;;;;20.71;50.61;99640.59;431581;1269;141569;-60
2022/06/27 00:46:46;;;;;;;5.60;4.00;;;;;;;20.54;51.26;99642.67;432370;1270;145049;-59
2022/06/27 00:56:53;;;;;;;4.30;3.80;;;;;;;20.38;51.75;99640.92;430810;1270;141348;-60
2022/06/27 01:06:59;;;;;;;4.20;3.80;;;;;;;20.27;52.28;99641.38;431912;1270;143283;-60
2022/06/27 01:17:06;;;;;;;4.70;4.30;;;;;;;20.14;52.73;99640.42;431026;1270;144735;-59
2022/06/27 01:27:12;;;;;;;4.50;4.00;;;;;;;20.01;53.14;99639.59;431228;1270;145338;-59
2022/06/27 01:37:17;;;;;;;5.00;3.80;;;;;;;19.87;53.67;99641.71;432350;1270;141800;-59
2022/06/27 01:47:23;;;;;;;5.50;4.90;;;;;;;19.78;54.00;99638.96;430961;1270;141356;-60
2022/06/27 01:57:30;;;;;;;5.10;4.40;;;;;;;19.70;54.65;99640.38;432449;1271;141021;-60
2022/06/27 02:07:37;;;;;;;6.70;3.90;;;;;;;19.64;55.12;99641.95;432124;1271;141477;-57
2022/06/27 02:17:43;;;;;;;4.80;4.30;;;;;;;19.55;55.24;99641.75;430911;1270;140597;-58
2022/06/27 02:27:50;;;;;;;4.90;4.50;;;;;;;19.48;55.71;99647.24;431038;1270;146673;-59
2022/06/27 02:37:58;;;;;;;6.60;4.60;;;;;;;19.48;56.06;99650.64;431017;1271;143801;-59
2022/06/27 02:48:04;;;;;;;5.20;4.30;;;;;;;19.51;56.21;99653.93;431421;1271;141129;-60
2022/06/27 02:58:13;;;;;;;6.00;4.60;;;;;;;19.79;56.00;99653.36;431135;1271;141719;-59
2022/06/27 03:08:19;;;;;;;5.30;4.80;;;;;;;21.31;54.44;99656.61;431537;1271;142650;-60
2022/06/27 03:18:25;;;;;;;4.80;4.40;;;;;;;22.92;51.85;99652.61;431918;1270;145787;-59
2022/06/27 03:28:31;;;;;;;6.10;4.30;;;;;;;23.35;50.01;99647.66;431640;1271;140769;-59
2022/06/27 03:38:37;;;;;;;5.10;3.60;;;;;;;24.56;47.84;99649.22;430384;1271;140653;-60
2022/06/27 03:59:06;;;;;;;11.50;10.50;;;;;;;24.03;48.63;99662.46;430052;1270;146832;-59
2022/06/27 04:09:12;;;;;;;7.40;3.40;;;;;;;29.89;42.65;99661.09;430422;1270;142084;-59
2022/06/27 04:19:18;;;;;;;3.50;3.20;;;;;;;34.18;35.92;99665.70;431521;1270;140446;-59
2022/06/27 04:29:26;;;;;;;3.10;2.80;;;;;;;37.20;31.40;99666.45;431384;1270;142029;-58
2022/06/27 04:39:32;;;;;;;3.30;2.40;;;;;;;39.78;27.89;99670.90;431960;1270;141219;-59
2022/06/27 04:49:39;;;;;;;2.90;2.70;;;;;;;41.58;24.94;99672.05;432591;1270;140488;-61
2022/06/27 04:59:45;;;;;;;2.40;2.20;;;;;;;43.21;22.64;99673.70;430842;1270;141390;-59
2022/06/27 05:09:52;;;;;;;6.40;2.70;;;;;;;45.18;20.82;99675.08;432696;1269;141683;-61
2022/06/27 05:19:58;;;;;;;5.20;2.50;;;;;;;46.82;19.38;99685.96;431982;1270;141051;-58
2022/06/27 05:30:06;;;;;;;4.20;2.70;;;;;;;48.60;17.79;99688.96;432797;1270;146009;-60
2022/06/27 05:40:12;;;;;;;5.00;2.30;;;;;;;50.24;16.47;99691.28;435080;1269;141729;-60
2022/06/27 05:50:18;;;;;;;3.00;2.10;;;;;;;51.36;15.16;99694.02;436586;1270;142150;-61
2022/06/27 06:00:24;;;;;;;3.40;2.50;;;;;;;50.48;14.45;99706.02;432095;1270;141909;-66
2022/06/27 06:10:30;;;;;;;3.40;2.30;;;;;;;50.46;14.69;99712.95;432456;1270;142437;-61
2022/06/27 06:20:37;;;;;;;4.80;2.90;;;;;;;51.10;13.96;99707.97;430936;1270;141099;-61
2022/06/27 06:30:42;;;;;;;;;;;;;;;50.97;13.64;99714.54;433205;1269;140573;-61
2022/06/27 06:40:47;;;;;;;4.10;3.70;;;;;;;50.37;13.66;99705.73;432258;1270;126316;-60
2022/06/27 06:50:54;;;;;;;;;;;;;;;50.89;13.47;99706.20;431506;1270;141398;-61
2022/06/27 07:01:01;;;;;;;4.30;3.90;;;;;;;50.60;13.69;99698.57;432137;1270;127619;-61
2022/06/27 07:11:08;;;;;;;5.70;5.40;;;;;;;51.39;12.69;99696.58;432175;1270;141720;-62
2022/06/27 07:21:14;;;;;;;8.30;7.80;;;;;;;52.30;12.24;99695.98;432945;1270;142010;-61
2022/06/27 07:31:20;;;;;;;9.80;8.90;;;;;;;52.02;12.14;99682.96;432355;1269;140920;-60
2022/06/27 07:41:32;;;;;;;7.00;6.70;;;;;;;51.15;11.87;99682.92;431705;1269;142114;-60
2022/06/27 07:51:39;;;;;;;3.20;2.30;;;;;;;49.98;12.37;99670.23;433541;1270;141323;-60
2022/06/27 08:01:45;;;;;;;3.00;2.40;;;;;;;44.04;15.31;99672.21;432203;1270;141780;-61
2022/06/27 08:11:52;;;;;;;3.70;2.40;;;;;;;36.75;20.83;99670.89;431864;1270;141330;-61
2022/06/27 08:21:58;;;;;;;4.10;2.70;;;;;;;34.11;24.28;99671.16;431807;1270;142078;-62
2022/06/27 08:32:05;;;;;;;3.20;2.50;;;;;;;32.54;26.38;99670.23;432825;1270;142056;-59
2022/06/27 08:42:13;;;;;;;3.00;2.20;;;;;;;31.83;27.68;99662.73;433556;1270;141446;-61
2022/06/27 08:52:20;;;;;;;7.10;2.00;;;;;;;31.63;28.51;99655.60;434193;1270;140596;-61
2022/06/27 09:02:27;;;;;;;4.20;2.60;;;;;;;31.53;28.46;99658.95;432151;1270;140350;-62
2022/06/27 09:12:35;;;;;;;2.40;2.20;;;;;;;31.34;29.12;99652.16;432927;1270;139853;-61
2022/06/27 09:22:42;;;;;;;3.20;2.00;;;;;;;31.28;28.87;99649.14;432768;1269;140623;-60
2022/06/27 09:32:52;;;;;;;2.30;1.90;;;;;;;31.22;28.95;99644.02;431979;1270;140828;-62
2022/06/27 09:42:59;;;;;;;8.90;2.80;;;;;;;30.98;29.45;99639.30;432112;1270;141302;-60
2022/06/27 09:53:07;;;;;;;3.10;2.40;;;;;;;31.13;30.19;99646.23;432703;1270;141696;-61
2022/06/27 10:03:13;;;;;;;3.40;2.20;;;;;;;31.29;30.69;99631.71;432823;1270;702087;-57
2022/06/27 10:13:21;;;;;;;3.10;2.80;;;;;;;31.19;31.14;99624.02;433370;1270;140627;-60
2022/06/27 10:23:31;;;;;;;2.70;1.90;;;;;;;31.06;31.56;99623.44;432918;1270;141746;-60
2022/06/27 10:33:46;;;;;;;2.80;2.30;;;;;;;30.89;31.70;99611.16;433833;1270;141209;-62
2022/06/27 10:43:54;;;;;;;4.00;2.20;;;;;;;30.82;32.09;99607.59;434085;1270;141453;-59
2022/06/27 10:54:13;;;;;;;2.50;2.10;;;;;;;30.67;32.23;99591.67;432866;1270;141349;-60
2022/06/27 11:04:28;;;;;;;2.50;2.30;;;;;;;30.58;32.69;99593.70;432708;1270;140297;-57
2022/06/27 11:14:47;;;;;;;3.10;2.50;;;;;;;30.63;32.81;99585.48;432304;1270;141585;-61
2022/06/27 11:24:58;;;;;;;2.70;2.30;;;;;;;30.84;32.46;99571.87;433073;1270;140881;-60
2022/06/27 11:35:10;;;;;;;5.60;2.70;;;;;;;30.94;32.14;99568.23;432119;1270;140258;-60
2022/06/27 11:45:17;;;;;;;2.90;2.00;;;;;;;30.98;32.17;99568.48;432596;1270;141094;-60
2022/06/27 11:55:25;;;;;;;3.60;2.40;;;;;;;30.93;31.98;99557.51;432371;1270;140819;-61
2022/06/27 12:05:33;;;;;;;3.30;3.00;;;;;;;30.71;32.17;99557.10;432906;1270;140871;-59
2022/06/27 12:15:41;;;;;;;2.90;2.60;;;;;;;30.93;32.12;99542.45;434131;1270;141360;-60
2022/06/27 12:25:47;;;;;;;3.50;2.30;;;;;;;31.06;31.82;99529.89;433071;1270;140485;-62
2022/06/27 12:35:53;;;;;;;3.00;2.20;;;;;;;31.24;31.53;99524.95;430981;1271;141305;-60
2022/06/27 12:45:59;;;;;;;3.00;2.50;;;;;;;31.20;31.38;99527.30;432028;1270;141883;-61
2022/06/27 12:56:07;;;;;;;3.40;2.40;;;;;;;30.98;31.43;99525.44;430794;1270;141852;-59
2022/06/27 13:06:14;;;;;;;2.50;2.30;;;;;;;31.28;31.44;99518.10;432082;1270;140487;-61
2022/06/27 13:16:19;;;;;;;;;;;;;;;31.54;30.92;99510.41;434131;1270;144306;-61
2022/06/27 13:26:25;;;;;;;2.90;2.10;;;;;;;31.52;30.65;99508.58;432059;1270;131546;-62
2022/06/27 13:36:31;;;;;;;3.20;2.60;;;;;;;31.59;30.69;99509.39;431961;1270;140224;-59
2022/06/27 13:46:38;;;;;;;5.80;2.70;;;;;;;31.76;30.69;99507.02;431518;1270;141027;-61
2022/06/27 13:56:45;;;;;;;2.90;2.50;;;;;;;31.91;30.30;99507.43;431312;1270;141882;-58
2022/06/27 14:17:15;;;;;;;5.40;2.00;;;;;;;31.69;30.52;99498.62;431554;1270;140504;-59
2022/06/27 14:27:22;;;;;;;4.80;2.40;;;;;;;31.53;30.91;99482.72;432548;1270;141731;-62
2022/06/27 14:37:26;;;;;;;;;;;;;;;31.51;30.69;99474.11;433685;1270;140796;-61
2022/06/27 14:47:33;;;;;;;4.20;2.30;;;;;;;31.11;30.53;99472.59;433713;1269;127999;-59
2022/06/27 14:57:39;;;;;;;4.90;2.20;;;;;;;31.11;30.70;99463.59;435686;1269;140723;-59
2022/06/27 15:07:45;;;;;;;3.40;2.20;;;;;;;30.98;30.69;99461.80;432260;1270;142920;-59
2022/06/27 15:17:53;;;;;;;4.90;2.80;;;;;;;30.88;30.76;99465.48;432951;1269;141273;-59
2022/06/27 15:27:59;;;;;;;3.70;2.20;;;;;;;30.66;31.02;99472.85;432311;1268;146026;-60
2022/06/27 15:38:05;;;;;;;2.50;2.30;;;;;;;30.60;30.99;99469.14;431366;1270;142018;-60
2022/06/27 15:48:12;;;;;;;2.60;2.40;;;;;;;30.68;31.03;99459.98;434651;1269;142508;-60
2022/06/27 15:58:18;;;;;;;2.80;2.10;;;;;;;30.67;30.20;99461.96;431749;1269;144876;-61
2022/06/27 16:08:24;;;;;;;4.70;2.00;;;;;;;30.64;29.91;99461.67;432365;1269;141472;-61
2022/06/27 16:18:30;;;;;;;3.70;2.00;;;;;;;30.59;29.91;99453.11;432277;1270;141360;-61
2022/06/27 16:28:37;;;;;;;6.10;2.60;;;;;;;30.49;29.93;99450.44;431470;1270;140153;-61
2022/06/27 16:38:43;;;;;;;7.70;1.70;;;;;;;30.35;29.60;99447.66;432189;1270;194610;-61
2022/06/27 16:48:49;;;;;;;3.00;1.80;;;;;;;30.25;29.76;99445.15;434443;1270;142016;-60
2022/06/27 16:58:55;;;;;;;2.40;1.70;;;;;;;30.23;30.63;99442.17;445763;1270;141351;-61
2022/06/27 17:09:01;;;;;;;7.50;2.50;;;;;;;30.06;31.41;99445.26;445975;1270;141566;-60
2022/06/27 17:19:07;;;;;;;3.90;1.90;;;;;;;29.89;32.12;99454.38;430562;1270;145745;-61
2022/06/27 17:29:13;;;;;;;4.60;2.20;;;;;;;29.68;32.86;99456.71;430316;1269;141185;-60
2022/06/27 17:39:19;;;;;;;3.70;2.30;;;;;;;29.41;33.46;99460.77;431621;1270;142113;-61
2022/06/27 17:49:25;;;;;;;3.70;2.10;;;;;;;29.12;33.80;99469.97;432102;1269;140689;-59
2022/06/27 17:59:31;;;;;;;4.90;2.10;;;;;;;29.18;33.96;99475.72;430660;1270;141175;-60
2022/06/27 18:09:38;;;;;;;2.50;2.00;;;;;;;29.03;34.01;99475.36;431146;1270;142011;-61
2022/06/27 18:19:44;;;;;;;4.50;2.40;;;;;;;28.42;34.88;99482.43;431953;1270;142299;-60
2022/06/27 18:29:50;;;;;;;2.60;2.20;;;;;;;27.99;35.52;99494.83;433712;1270;141187;-61
2022/06/27 18:39:57;;;;;;;2.10;1.90;;;;;;;27.64;36.33;99498.09;431832;1270;140964;-59
2022/06/27 18:50:03;;;;;;;3.90;2.30;;;;;;;27.31;36.87;99512.02;432301;1270;141637;-59
2022/06/27 19:00:13;;;;;;;2.60;2.40;;;;;;;27.22;37.35;99517.17;431643;1270;141160;-59
2022/06/27 19:10:19;;;;;;;3.00;2.50;;;;;;;27.09;37.75;99531.20;433985;1271;140605;-62
2022/06/27 19:20:25;;;;;;;4.40;2.10;;;;;;;26.90;38.01;99545.55;433109;1269;141284;-61
2022/06/27 19:30:32;;;;;;;6.10;2.30;;;;;;;26.70;38.20;99554.88;441007;1270;141992;-61
2022/06/27 19:40:40;;;;;;;3.20;2.20;;;;;;;26.47;38.96;99559.10;444219;1270;140458;-58
2022/06/27 19:50:46;;;;;;;2.50;2.30;;;;;;;26.26;39.24;99559.91;447098;1269;144134;-60
2022/06/27 20:00:52;;;;;;;4.10;2.40;;;;;;;26.04;39.67;99556.80;447603;1270;141597;-60
2022/06/27 20:10:59;;;;;;;5.80;2.90;;;;;;;25.82;40.15;99546.76;439048;1270;142278;-57
2022/06/27 20:21:05;;;;;;;4.30;3.00;;;;;;;25.62;40.64;99546.14;435440;1270;205015;-60
2022/06/27 20:31:11;;;;;;;3.00;2.70;;;;;;;25.39;41.19;99543.10;440390;1270;142269;-60
2022/06/27 20:41:17;;;;;;;6.00;3.00;;;;;;;25.17;41.56;99541.15;442303;1270;142927;-61
2022/06/27 20:51:23;;;;;;;4.40;3.00;;;;;;;24.97;42.12;99540.45;447808;1269;142091;-61
2022/06/27 21:01:29;;;;;;;3.40;3.20;;;;;;;24.79;42.56;99530.98;444479;1270;141776;-60
2022/06/27 21:11:53;;;;;;;6.20;3.50;;;;;;;24.64;42.95;99526.27;443729;1270;144561;-59
2022/06/27 21:21:59;;;;;;;6.80;3.90;;;;;;;24.24;43.51;99532.38;440864;1270;141669;-61
2022/06/27 21:32:08;;;;;;;4.90;2.70;;;;;;;23.95;44.30;99526.09;437912;1270;142909;-61
2022/06/27 21:42:13;;;;;;;4.60;3.10;;;;;;;23.70;44.67;99525.31;447802;1270;142807;-60
2022/06/27 22:02:43;;;;;;;6.00;2.90;;;;;;;23.33;45.78;99517.52;446934;1268;294727;-61
2022/06/27 22:12:49;;;;;;;4.20;3.80;;;;;;;23.18;45.94;99512.73;442604;1270;145856;-61
2022/06/27 22:22:55;;;;;;;3.80;3.50;;;;;;;23.02;46.27;99521.70;445589;1270;144867;-60
2022/06/27 22:33:01;;;;;;;3.50;3.20;;;;;;;22.81;46.89;99522.16;442581;1270;140719;-60
2022/06/27 22:43:07;;;;;;;4.40;3.60;;;;;;;22.78;47.10;99522.19;442210;1270;141609;-60
2022/06/27 22:53:13;;;;;;;3.70;3.20;;;;;;;22.54;47.66;99517.95;446091;1270;142026;-60
2022/06/27 23:03:19;;;;;;;3.50;3.30;;;;;;;22.33;48.02;99512.98;434723;1270;141248;-61
2022/06/27 23:13:25;;;;;;;4.20;3.90;;;;;;;22.16;48.51;99518.91;435603;1270;141094;-60
2022/06/27 23:23:31;;;;;;;5.00;3.40;;;;;;;21.98;48.95;99536.94;447042;1270;141728;-60
2022/06/27 23:33:37;;;;;;;3.50;3.20;;;;;;;21.85;49.35;99538.44;440802;1270;146691;-60
2022/06/27 23:43:44;;;;;;;4.80;3.60;;;;;;;21.74;49.74;99540.38;430328;1270;140604;-61
2022/06/27 23:53:50;;;;;;;5.30;3.30;;;;;;;21.63;50.17;99543.09;431802;1270;140663;-60
